createdAt,value
2023-01-13T00:21:21.288Z,0
2023-01-13T01:02:00.683Z,0
2023-01-13T01:16:54.936Z,0.01
2023-01-13T02:46:30.793Z,0
2023-01-13T03:03:30.758Z,0
2023-01-13T03:18:14.641Z,0
2023-01-13T03:33:10.556Z,0
2023-01-13T03:48:06.747Z,0
2023-01-13T03:53:39.635Z,0
2023-01-13T04:08:34.443Z,0
2023-01-13T04:23:30.774Z,0
2023-01-13T04:39:29.189Z,0
2023-01-13T04:58:46.724Z,0
2023-01-13T05:13:40.991Z,0
2023-01-13T05:28:37.019Z,0
2023-01-13T05:43:33.198Z,0
2023-01-13T05:58:29.495Z,0
2023-01-13T06:13:25.098Z,0
2023-01-13T06:25:48.384Z,0
2023-01-13T06:44:54.594Z,0
2023-01-13T06:59:50.535Z,0
2023-01-13T07:14:44.630Z,0
2023-01-13T08:02:19.363Z,0.01
2023-01-13T08:17:13.046Z,0.04
2023-01-13T08:36:26.744Z,0.02
2023-01-13T08:51:14.834Z,0.03
2023-01-13T09:06:03.691Z,0.06
2023-01-13T09:21:59.518Z,0.06
2023-01-13T09:42:07.427Z,0.09
2023-01-13T09:56:55.749Z,0.07
2023-01-13T10:12:48.239Z,0.1
2023-01-13T10:47:03.943Z,0.1
2023-01-13T12:15:56.837Z,0.18
2023-01-13T12:41:17.492Z,0.19
2023-01-13T12:56:11.184Z,0.11
2023-01-13T13:14:18.566Z,0.2
2023-01-13T13:31:18.665Z,0.08
2023-01-13T13:46:13.309Z,0.1
2023-01-13T14:17:51.337Z,0.1
2023-01-13T14:44:17.385Z,0.05
2023-01-13T15:09:46.616Z,0.03
2023-01-13T15:24:40.182Z,0.03
2023-01-13T15:39:35.948Z,0.03
2023-01-13T15:54:31.894Z,0.02
2023-01-13T16:09:28.138Z,0
2023-01-13T16:24:24.604Z,0.01
2023-01-13T16:39:20.670Z,0.01
2023-01-13T16:54:17.455Z,0
2023-01-13T17:09:13.143Z,0
2023-01-13T17:24:09.129Z,0
2023-01-13T17:39:05.207Z,0
2023-01-13T17:54:01.531Z,0
2023-01-13T18:08:57.695Z,0.02
2023-01-13T18:23:53.371Z,0
2023-01-13T18:38:49.477Z,0
2023-01-13T18:53:45.724Z,0
2023-01-13T19:08:42.613Z,0
2023-01-13T19:23:38.667Z,0
2023-01-13T19:38:34.967Z,0
2023-01-13T19:53:31.186Z,0
2023-01-13T20:08:27.195Z,0
2023-01-13T20:23:23.450Z,0
2023-01-13T20:38:19.657Z,0
2023-01-13T21:08:11.785Z,0
2023-01-13T21:23:07.906Z,0
2023-01-13T21:53:00.662Z,0
2023-01-13T22:07:56.402Z,0
2023-01-13T22:22:52.246Z,0
2023-01-13T22:37:47.873Z,0
2023-01-13T22:52:43.833Z,0
2023-01-13T23:07:39.739Z,0
2023-01-13T23:22:35.422Z,0
2023-01-13T23:37:30.975Z,0
2023-01-13T23:52:26.667Z,0
